<?xml version="1.0" encoding="UTF-8" standalone="no" ?>
<gpx xmlns="http://www.topografix.com/GPX/1/1" xmlns:xsi="http://www.w3.org/2001/XMLSchema-instance" xsi:schemaLocation="http://www.topografix.com/GPX/1/1 http://www.topografix.com/GPX/1/1/gpx.xsd" version="1.1" creator="VisuGPX - https://www.visugpx.com">
  <metadata>
    <name>Corse calanche de Piana - Sentier muletier</name>
    <desc><![CDATA[Sortie donnée pour 1H30 ? Durée corse. Faite en moins d\'une heure en trainant]]></desc>
  </metadata>
  <trk>
    <name><![CDATA[ACTIVE LOG 001]]></name>
    <trkseg>
      <trkpt lat="42.24015" lon="8.6543">
        <ele>457.244263</ele>
        <time>2011-09-07T07:14:25Z</time>
      </trkpt>
      <trkpt lat="42.24015" lon="8.65429">
        <ele>457.244263</ele>
        <time>2011-09-07T07:14:26Z</time>
      </trkpt>
      <trkpt lat="42.24014" lon="8.65428">
        <ele>460.608765</ele>
        <time>2011-09-07T07:14:32Z</time>
      </trkpt>
      <trkpt lat="42.24014" lon="8.65428">
        <ele>462.050781</ele>
        <time>2011-09-07T07:14:34Z</time>
      </trkpt>
      <trkpt lat="42.24014" lon="8.65428">
        <ele>465.415527</ele>
        <time>2011-09-07T07:14:41Z</time>
      </trkpt>
      <trkpt lat="42.24014" lon="8.65428">
        <ele>465.896118</ele>
        <time>2011-09-07T07:14:42Z</time>
      </trkpt>
      <trkpt lat="42.24013" lon="8.65429">
        <ele>469.260742</ele>
        <time>2011-09-07T07:14:51Z</time>
      </trkpt>
      <trkpt lat="42.24014" lon="8.65429">
        <ele>468.780029</ele>
        <time>2011-09-07T07:14:52Z</time>
      </trkpt>
      <trkpt lat="42.24015" lon="8.65428">
        <ele>472.144653</ele>
        <time>2011-09-07T07:15:11Z</time>
      </trkpt>
      <trkpt lat="42.24014" lon="8.65429">
        <ele>475.509277</ele>
        <time>2011-09-07T07:15:39Z</time>
      </trkpt>
      <trkpt lat="42.24013" lon="8.65429">
        <ele>475.509277</ele>
        <time>2011-09-07T07:15:40Z</time>
      </trkpt>
      <trkpt lat="42.24012" lon="8.65431">
        <ele>476.951294</ele>
        <time>2011-09-07T07:15:45Z</time>
      </trkpt>
      <trkpt lat="42.24009" lon="8.65434">
        <ele>477.912476</ele>
        <time>2011-09-07T07:15:54Z</time>
      </trkpt>
      <trkpt lat="42.23992" lon="8.65446">
        <ele>480.315918</ele>
        <time>2011-09-07T07:16:13Z</time>
      </trkpt>
      <trkpt lat="42.23989" lon="8.65446">
        <ele>480.796631</ele>
        <time>2011-09-07T07:16:16Z</time>
      </trkpt>
      <trkpt lat="42.23978" lon="8.65449">
        <ele>481.757812</ele>
        <time>2011-09-07T07:16:30Z</time>
      </trkpt>
      <trkpt lat="42.23974" lon="8.65461">
        <ele>482.238525</ele>
        <time>2011-09-07T07:16:42Z</time>
      </trkpt>
      <trkpt lat="42.23976" lon="8.65482">
        <ele>482.238525</ele>
        <time>2011-09-07T07:16:59Z</time>
      </trkpt>
      <trkpt lat="42.23972" lon="8.65493">
        <ele>482.719238</ele>
        <time>2011-09-07T07:17:21Z</time>
      </trkpt>
      <trkpt lat="42.23974" lon="8.65519">
        <ele>484.161133</ele>
        <time>2011-09-07T07:17:38Z</time>
      </trkpt>
      <trkpt lat="42.23978" lon="8.65562">
        <ele>484.161133</ele>
        <time>2011-09-07T07:18:03Z</time>
      </trkpt>
      <trkpt lat="42.23983" lon="8.65603">
        <ele>484.161133</ele>
        <time>2011-09-07T07:18:27Z</time>
      </trkpt>
      <trkpt lat="42.23987" lon="8.6564">
        <ele>484.641846</ele>
        <time>2011-09-07T07:18:53Z</time>
      </trkpt>
      <trkpt lat="42.23987" lon="8.65647">
        <ele>485.122437</ele>
        <time>2011-09-07T07:19:19Z</time>
      </trkpt>
      <trkpt lat="42.23982" lon="8.6566">
        <ele>487.525635</ele>
        <time>2011-09-07T07:19:32Z</time>
      </trkpt>
      <trkpt lat="42.23981" lon="8.6566">
        <ele>487.045044</ele>
        <time>2011-09-07T07:19:33Z</time>
      </trkpt>
      <trkpt lat="42.23971" lon="8.65675">
        <ele>488.00647</ele>
        <time>2011-09-07T07:19:50Z</time>
      </trkpt>
      <trkpt lat="42.23969" lon="8.65679">
        <ele>487.045044</ele>
        <time>2011-09-07T07:19:55Z</time>
      </trkpt>
      <trkpt lat="42.23976" lon="8.65699">
        <ele>487.045044</ele>
        <time>2011-09-07T07:20:10Z</time>
      </trkpt>
      <trkpt lat="42.23986" lon="8.65708">
        <ele>487.525635</ele>
        <time>2011-09-07T07:20:23Z</time>
      </trkpt>
      <trkpt lat="42.23993" lon="8.65711">
        <ele>489.448364</ele>
        <time>2011-09-07T07:20:36Z</time>
      </trkpt>
      <trkpt lat="42.24002" lon="8.65724">
        <ele>489.929077</ele>
        <time>2011-09-07T07:20:50Z</time>
      </trkpt>
      <trkpt lat="42.24004" lon="8.6574">
        <ele>490.890381</ele>
        <time>2011-09-07T07:21:06Z</time>
      </trkpt>
      <trkpt lat="42.24" lon="8.65758">
        <ele>491.851685</ele>
        <time>2011-09-07T07:21:21Z</time>
      </trkpt>
      <trkpt lat="42.24" lon="8.65769">
        <ele>493.293579</ele>
        <time>2011-09-07T07:21:33Z</time>
      </trkpt>
      <trkpt lat="42.23997" lon="8.65781">
        <ele>494.255005</ele>
        <time>2011-09-07T07:21:45Z</time>
      </trkpt>
      <trkpt lat="42.24" lon="8.65789">
        <ele>494.735596</ele>
        <time>2011-09-07T07:21:53Z</time>
      </trkpt>
      <trkpt lat="42.24008" lon="8.65806">
        <ele>494.735596</ele>
        <time>2011-09-07T07:22:09Z</time>
      </trkpt>
      <trkpt lat="42.24008" lon="8.65823">
        <ele>495.216187</ele>
        <time>2011-09-07T07:22:24Z</time>
      </trkpt>
      <trkpt lat="42.24014" lon="8.65827">
        <ele>495.216187</ele>
        <time>2011-09-07T07:22:38Z</time>
      </trkpt>
      <trkpt lat="42.24014" lon="8.65828">
        <ele>495.216187</ele>
        <time>2011-09-07T07:22:39Z</time>
      </trkpt>
      <trkpt lat="42.24016" lon="8.6583">
        <ele>496.177734</ele>
        <time>2011-09-07T07:22:41Z</time>
      </trkpt>
      <trkpt lat="42.24018" lon="8.65835">
        <ele>496.177734</ele>
        <time>2011-09-07T07:22:45Z</time>
      </trkpt>
      <trkpt lat="42.24019" lon="8.65838">
        <ele>497.138916</ele>
        <time>2011-09-07T07:22:47Z</time>
      </trkpt>
      <trkpt lat="42.24029" lon="8.65838">
        <ele>497.619629</ele>
        <time>2011-09-07T07:22:58Z</time>
      </trkpt>
      <trkpt lat="42.24041" lon="8.65825">
        <ele>500.022949</ele>
        <time>2011-09-07T07:23:15Z</time>
      </trkpt>
      <trkpt lat="42.24048" lon="8.65816">
        <ele>501.464844</ele>
        <time>2011-09-07T07:23:27Z</time>
      </trkpt>
      <trkpt lat="42.24063" lon="8.65798">
        <ele>501.945557</ele>
        <time>2011-09-07T07:23:47Z</time>
      </trkpt>
      <trkpt lat="42.24076" lon="8.65785">
        <ele>503.387451</ele>
        <time>2011-09-07T07:24:05Z</time>
      </trkpt>
      <trkpt lat="42.24077" lon="8.65781">
        <ele>503.868164</ele>
        <time>2011-09-07T07:24:09Z</time>
      </trkpt>
      <trkpt lat="42.24084" lon="8.65761">
        <ele>504.829468</ele>
        <time>2011-09-07T07:24:26Z</time>
      </trkpt>
      <trkpt lat="42.24089" lon="8.65758">
        <ele>507.232788</ele>
        <time>2011-09-07T07:24:38Z</time>
      </trkpt>
      <trkpt lat="42.24091" lon="8.65767">
        <ele>509.155396</ele>
        <time>2011-09-07T07:24:50Z</time>
      </trkpt>
      <trkpt lat="42.2409" lon="8.65784">
        <ele>510.116699</ele>
        <time>2011-09-07T07:25:05Z</time>
      </trkpt>
      <trkpt lat="42.24095" lon="8.6578">
        <ele>511.078003</ele>
        <time>2011-09-07T07:25:16Z</time>
      </trkpt>
      <trkpt lat="42.24095" lon="8.65779">
        <ele>511.078003</ele>
        <time>2011-09-07T07:25:17Z</time>
      </trkpt>
      <trkpt lat="42.24102" lon="8.65762">
        <ele>513.000732</ele>
        <time>2011-09-07T07:25:34Z</time>
      </trkpt>
      <trkpt lat="42.24106" lon="8.65745">
        <ele>514.92334</ele>
        <time>2011-09-07T07:25:50Z</time>
      </trkpt>
      <trkpt lat="42.24111" lon="8.6573">
        <ele>516.845947</ele>
        <time>2011-09-07T07:26:03Z</time>
      </trkpt>
      <trkpt lat="42.24121" lon="8.65707">
        <ele>519.729858</ele>
        <time>2011-09-07T07:26:21Z</time>
      </trkpt>
      <trkpt lat="42.24134" lon="8.65694">
        <ele>521.171997</ele>
        <time>2011-09-07T07:26:37Z</time>
      </trkpt>
      <trkpt lat="42.24142" lon="8.65683">
        <ele>522.133179</ele>
        <time>2011-09-07T07:26:53Z</time>
      </trkpt>
      <trkpt lat="42.24148" lon="8.65678">
        <ele>523.575195</ele>
        <time>2011-09-07T07:27:11Z</time>
      </trkpt>
      <trkpt lat="42.24155" lon="8.6567">
        <ele>524.055786</ele>
        <time>2011-09-07T07:27:25Z</time>
      </trkpt>
      <trkpt lat="42.24162" lon="8.65666">
        <ele>524.536499</ele>
        <time>2011-09-07T07:27:39Z</time>
      </trkpt>
      <trkpt lat="42.24181" lon="8.65669">
        <ele>526.939819</ele>
        <time>2011-09-07T07:27:58Z</time>
      </trkpt>
      <trkpt lat="42.24189" lon="8.65674">
        <ele>528.381836</ele>
        <time>2011-09-07T07:28:10Z</time>
      </trkpt>
      <trkpt lat="42.24193" lon="8.65674">
        <ele>528.862549</ele>
        <time>2011-09-07T07:28:25Z</time>
      </trkpt>
      <trkpt lat="42.24195" lon="8.65675">
        <ele>528.862549</ele>
        <time>2011-09-07T07:28:46Z</time>
      </trkpt>
      <trkpt lat="42.24201" lon="8.65674">
        <ele>527.901001</ele>
        <time>2011-09-07T07:28:51Z</time>
      </trkpt>
      <trkpt lat="42.2421" lon="8.65677">
        <ele>527.42041</ele>
        <time>2011-09-07T07:29:03Z</time>
      </trkpt>
      <trkpt lat="42.24224" lon="8.65685">
        <ele>527.42041</ele>
        <time>2011-09-07T07:29:17Z</time>
      </trkpt>
      <trkpt lat="42.24241" lon="8.65697">
        <ele>528.381836</ele>
        <time>2011-09-07T07:29:35Z</time>
      </trkpt>
      <trkpt lat="42.24255" lon="8.65706">
        <ele>528.862549</ele>
        <time>2011-09-07T07:29:50Z</time>
      </trkpt>
      <trkpt lat="42.2426" lon="8.65706">
        <ele>529.34314</ele>
        <time>2011-09-07T07:29:55Z</time>
      </trkpt>
      <trkpt lat="42.24268" lon="8.65708">
        <ele>529.82373</ele>
        <time>2011-09-07T07:30:02Z</time>
      </trkpt>
      <trkpt lat="42.24291" lon="8.65706">
        <ele>529.34314</ele>
        <time>2011-09-07T07:30:23Z</time>
      </trkpt>
      <trkpt lat="42.24309" lon="8.65705">
        <ele>530.785156</ele>
        <time>2011-09-07T07:30:39Z</time>
      </trkpt>
      <trkpt lat="42.24317" lon="8.65703">
        <ele>531.265747</ele>
        <time>2011-09-07T07:30:46Z</time>
      </trkpt>
      <trkpt lat="42.24337" lon="8.65697">
        <ele>531.746338</ele>
        <time>2011-09-07T07:31:04Z</time>
      </trkpt>
      <trkpt lat="42.2435" lon="8.65694">
        <ele>532.227051</ele>
        <time>2011-09-07T07:31:18Z</time>
      </trkpt>
      <trkpt lat="42.2436" lon="8.65691">
        <ele>532.227051</ele>
        <time>2011-09-07T07:31:28Z</time>
      </trkpt>
      <trkpt lat="42.2437" lon="8.65685">
        <ele>533.668945</ele>
        <time>2011-09-07T07:31:42Z</time>
      </trkpt>
      <trkpt lat="42.24371" lon="8.65684">
        <ele>533.188354</ele>
        <time>2011-09-07T07:31:43Z</time>
      </trkpt>
      <trkpt lat="42.24378" lon="8.65669">
        <ele>533.668945</ele>
        <time>2011-09-07T07:31:59Z</time>
      </trkpt>
      <trkpt lat="42.24383" lon="8.65642">
        <ele>533.188354</ele>
        <time>2011-09-07T07:32:18Z</time>
      </trkpt>
      <trkpt lat="42.24379" lon="8.65608">
        <ele>533.188354</ele>
        <time>2011-09-07T07:32:40Z</time>
      </trkpt>
      <trkpt lat="42.2438" lon="8.65585">
        <ele>533.668945</ele>
        <time>2011-09-07T07:32:57Z</time>
      </trkpt>
      <trkpt lat="42.2438" lon="8.65582">
        <ele>533.188354</ele>
        <time>2011-09-07T07:32:59Z</time>
      </trkpt>
      <trkpt lat="42.24384" lon="8.65558">
        <ele>534.149658</ele>
        <time>2011-09-07T07:33:16Z</time>
      </trkpt>
      <trkpt lat="42.24398" lon="8.65542">
        <ele>536.072388</ele>
        <time>2011-09-07T07:33:35Z</time>
      </trkpt>
      <trkpt lat="42.244" lon="8.6554">
        <ele>537.033691</ele>
        <time>2011-09-07T07:33:37Z</time>
      </trkpt>
      <trkpt lat="42.24402" lon="8.65537">
        <ele>537.514282</ele>
        <time>2011-09-07T07:33:40Z</time>
      </trkpt>
      <trkpt lat="42.24413" lon="8.65522">
        <ele>538.475708</ele>
        <time>2011-09-07T07:33:57Z</time>
      </trkpt>
      <trkpt lat="42.24426" lon="8.65511">
        <ele>539.43689</ele>
        <time>2011-09-07T07:34:15Z</time>
      </trkpt>
      <trkpt lat="42.24434" lon="8.65507">
        <ele>540.878906</ele>
        <time>2011-09-07T07:34:26Z</time>
      </trkpt>
      <trkpt lat="42.24455" lon="8.65507">
        <ele>542.320923</ele>
        <time>2011-09-07T07:34:46Z</time>
      </trkpt>
      <trkpt lat="42.24467" lon="8.65513">
        <ele>542.801514</ele>
        <time>2011-09-07T07:35:02Z</time>
      </trkpt>
      <trkpt lat="42.24472" lon="8.65512">
        <ele>544.243652</ele>
        <time>2011-09-07T07:35:16Z</time>
      </trkpt>
      <trkpt lat="42.24478" lon="8.65509">
        <ele>543.282104</ele>
        <time>2011-09-07T07:35:24Z</time>
      </trkpt>
      <trkpt lat="42.24491" lon="8.65509">
        <ele>545.204834</ele>
        <time>2011-09-07T07:35:40Z</time>
      </trkpt>
      <trkpt lat="42.24496" lon="8.65508">
        <ele>545.685547</ele>
        <time>2011-09-07T07:35:53Z</time>
      </trkpt>
      <trkpt lat="42.24496" lon="8.65507">
        <ele>546.16626</ele>
        <time>2011-09-07T07:36:20Z</time>
      </trkpt>
      <trkpt lat="42.24502" lon="8.65512">
        <ele>549.050049</ele>
        <time>2011-09-07T07:36:38Z</time>
      </trkpt>
      <trkpt lat="42.24503" lon="8.65519">
        <ele>548.088867</ele>
        <time>2011-09-07T07:36:54Z</time>
      </trkpt>
      <trkpt lat="42.24505" lon="8.65523">
        <ele>546.646851</ele>
        <time>2011-09-07T07:37:06Z</time>
      </trkpt>
      <trkpt lat="42.24519" lon="8.65526">
        <ele>546.16626</ele>
        <time>2011-09-07T07:37:22Z</time>
      </trkpt>
      <trkpt lat="42.24526" lon="8.65529">
        <ele>546.16626</ele>
        <time>2011-09-07T07:37:35Z</time>
      </trkpt>
      <trkpt lat="42.24535" lon="8.65538">
        <ele>548.569336</ele>
        <time>2011-09-07T07:37:51Z</time>
      </trkpt>
      <trkpt lat="42.24542" lon="8.6554">
        <ele>546.16626</ele>
        <time>2011-09-07T07:38:02Z</time>
      </trkpt>
      <trkpt lat="42.24549" lon="8.65538">
        <ele>545.685547</ele>
        <time>2011-09-07T07:38:14Z</time>
      </trkpt>
      <trkpt lat="42.24558" lon="8.65537">
        <ele>543.762817</ele>
        <time>2011-09-07T07:38:29Z</time>
      </trkpt>
      <trkpt lat="42.24568" lon="8.65547">
        <ele>542.320923</ele>
        <time>2011-09-07T07:38:43Z</time>
      </trkpt>
      <trkpt lat="42.24573" lon="8.65549">
        <ele>541.84021</ele>
        <time>2011-09-07T07:39:00Z</time>
      </trkpt>
      <trkpt lat="42.24584" lon="8.65549">
        <ele>540.878906</ele>
        <time>2011-09-07T07:39:14Z</time>
      </trkpt>
      <trkpt lat="42.24588" lon="8.65549">
        <ele>537.994995</ele>
        <time>2011-09-07T07:39:26Z</time>
      </trkpt>
      <trkpt lat="42.24592" lon="8.65546">
        <ele>536.553101</ele>
        <time>2011-09-07T07:39:39Z</time>
      </trkpt>
      <trkpt lat="42.24597" lon="8.65547">
        <ele>533.668945</ele>
        <time>2011-09-07T07:39:51Z</time>
      </trkpt>
      <trkpt lat="42.24598" lon="8.65547">
        <ele>533.668945</ele>
        <time>2011-09-07T07:39:52Z</time>
      </trkpt>
      <trkpt lat="42.24603" lon="8.65544">
        <ele>531.746338</ele>
        <time>2011-09-07T07:40:05Z</time>
      </trkpt>
      <trkpt lat="42.24607" lon="8.6554">
        <ele>531.746338</ele>
        <time>2011-09-07T07:40:17Z</time>
      </trkpt>
      <trkpt lat="42.24616" lon="8.65537">
        <ele>530.785156</ele>
        <time>2011-09-07T07:40:34Z</time>
      </trkpt>
      <trkpt lat="42.2462" lon="8.65539">
        <ele>529.34314</ele>
        <time>2011-09-07T07:40:47Z</time>
      </trkpt>
      <trkpt lat="42.24626" lon="8.65544">
        <ele>527.901001</ele>
        <time>2011-09-07T07:41:04Z</time>
      </trkpt>
      <trkpt lat="42.24622" lon="8.65539">
        <ele>525.978394</ele>
        <time>2011-09-07T07:41:15Z</time>
      </trkpt>
      <trkpt lat="42.24627" lon="8.65541">
        <ele>524.055786</ele>
        <time>2011-09-07T07:41:27Z</time>
      </trkpt>
      <trkpt lat="42.24633" lon="8.65541">
        <ele>522.133179</ele>
        <time>2011-09-07T07:41:41Z</time>
      </trkpt>
      <trkpt lat="42.24629" lon="8.65535">
        <ele>521.171997</ele>
        <time>2011-09-07T07:41:54Z</time>
      </trkpt>
      <trkpt lat="42.24636" lon="8.65535">
        <ele>519.729858</ele>
        <time>2011-09-07T07:42:09Z</time>
      </trkpt>
      <trkpt lat="42.24641" lon="8.65536">
        <ele>517.807251</ele>
        <time>2011-09-07T07:42:24Z</time>
      </trkpt>
      <trkpt lat="42.24644" lon="8.65536">
        <ele>516.845947</ele>
        <time>2011-09-07T07:42:36Z</time>
      </trkpt>
      <trkpt lat="42.24649" lon="8.65536">
        <ele>515.884644</ele>
        <time>2011-09-07T07:42:48Z</time>
      </trkpt>
      <trkpt lat="42.24653" lon="8.65536">
        <ele>514.442627</ele>
        <time>2011-09-07T07:43:05Z</time>
      </trkpt>
      <trkpt lat="42.2466" lon="8.65536">
        <ele>513.000732</ele>
        <time>2011-09-07T07:43:19Z</time>
      </trkpt>
      <trkpt lat="42.24667" lon="8.65538">
        <ele>510.59729</ele>
        <time>2011-09-07T07:43:33Z</time>
      </trkpt>
      <trkpt lat="42.24668" lon="8.65533">
        <ele>509.636108</ele>
        <time>2011-09-07T07:43:47Z</time>
      </trkpt>
      <trkpt lat="42.2467" lon="8.65537">
        <ele>509.636108</ele>
        <time>2011-09-07T07:44:22Z</time>
      </trkpt>
      <trkpt lat="42.24674" lon="8.65542">
        <ele>506.752075</ele>
        <time>2011-09-07T07:44:36Z</time>
      </trkpt>
      <trkpt lat="42.24677" lon="8.65542">
        <ele>505.310181</ele>
        <time>2011-09-07T07:44:48Z</time>
      </trkpt>
      <trkpt lat="42.24682" lon="8.65547">
        <ele>504.348877</ele>
        <time>2011-09-07T07:45:03Z</time>
      </trkpt>
      <trkpt lat="42.24692" lon="8.65555">
        <ele>504.348877</ele>
        <time>2011-09-07T07:45:16Z</time>
      </trkpt>
      <trkpt lat="42.24698" lon="8.65558">
        <ele>505.310181</ele>
        <time>2011-09-07T07:45:30Z</time>
      </trkpt>
      <trkpt lat="42.24698" lon="8.65561">
        <ele>507.232788</ele>
        <time>2011-09-07T07:45:43Z</time>
      </trkpt>
      <trkpt lat="42.24703" lon="8.65561">
        <ele>508.674683</ele>
        <time>2011-09-07T07:45:56Z</time>
      </trkpt>
      <trkpt lat="42.24704" lon="8.65561">
        <ele>508.674683</ele>
        <time>2011-09-07T07:46:13Z</time>
      </trkpt>
      <trkpt lat="42.24702" lon="8.65562">
        <ele>508.194092</ele>
        <time>2011-09-07T07:46:28Z</time>
      </trkpt>
      <trkpt lat="42.24699" lon="8.65563">
        <ele>507.232788</ele>
        <time>2011-09-07T07:46:33Z</time>
      </trkpt>
      <trkpt lat="42.24697" lon="8.65565">
        <ele>507.713501</ele>
        <time>2011-09-07T07:46:35Z</time>
      </trkpt>
      <trkpt lat="42.2469" lon="8.65568">
        <ele>509.636108</ele>
        <time>2011-09-07T07:46:49Z</time>
      </trkpt>
      <trkpt lat="42.24693" lon="8.65576">
        <ele>510.116699</ele>
        <time>2011-09-07T07:47:03Z</time>
      </trkpt>
      <trkpt lat="42.24693" lon="8.65581">
        <ele>508.194092</ele>
        <time>2011-09-07T07:47:11Z</time>
      </trkpt>
      <trkpt lat="42.24693" lon="8.65582">
        <ele>507.713501</ele>
        <time>2011-09-07T07:47:12Z</time>
      </trkpt>
      <trkpt lat="42.24685" lon="8.6559">
        <ele>506.752075</ele>
        <time>2011-09-07T07:47:25Z</time>
      </trkpt>
      <trkpt lat="42.24688" lon="8.65589">
        <ele>506.271484</ele>
        <time>2011-09-07T07:47:44Z</time>
      </trkpt>
      <trkpt lat="42.24691" lon="8.65593">
        <ele>504.348877</ele>
        <time>2011-09-07T07:48:05Z</time>
      </trkpt>
      <trkpt lat="42.24696" lon="8.65594">
        <ele>501.464844</ele>
        <time>2011-09-07T07:48:19Z</time>
      </trkpt>
      <trkpt lat="42.24699" lon="8.65597">
        <ele>499.542236</ele>
        <time>2011-09-07T07:48:42Z</time>
      </trkpt>
      <trkpt lat="42.24705" lon="8.65597">
        <ele>497.619629</ele>
        <time>2011-09-07T07:48:56Z</time>
      </trkpt>
      <trkpt lat="42.24705" lon="8.65602">
        <ele>494.255005</ele>
        <time>2011-09-07T07:49:15Z</time>
      </trkpt>
      <trkpt lat="42.24706" lon="8.65606">
        <ele>492.332397</ele>
        <time>2011-09-07T07:49:32Z</time>
      </trkpt>
      <trkpt lat="42.24707" lon="8.65608">
        <ele>490.40979</ele>
        <time>2011-09-07T07:49:50Z</time>
      </trkpt>
      <trkpt lat="42.24708" lon="8.65611">
        <ele>488.00647</ele>
        <time>2011-09-07T07:50:05Z</time>
      </trkpt>
      <trkpt lat="42.24713" lon="8.65611">
        <ele>486.564453</ele>
        <time>2011-09-07T07:50:19Z</time>
      </trkpt>
      <trkpt lat="42.24715" lon="8.65616">
        <ele>483.68042</ele>
        <time>2011-09-07T07:50:35Z</time>
      </trkpt>
      <trkpt lat="42.24716" lon="8.65619">
        <ele>482.719238</ele>
        <time>2011-09-07T07:51:13Z</time>
      </trkpt>
      <trkpt lat="42.24716" lon="8.65624">
        <ele>479.835083</ele>
        <time>2011-09-07T07:51:47Z</time>
      </trkpt>
      <trkpt lat="42.24718" lon="8.65625">
        <ele>476.470581</ele>
        <time>2011-09-07T07:52:00Z</time>
      </trkpt>
      <trkpt lat="42.24717" lon="8.65629">
        <ele>475.509277</ele>
        <time>2011-09-07T07:52:10Z</time>
      </trkpt>
      <trkpt lat="42.24716" lon="8.65632">
        <ele>472.144653</ele>
        <time>2011-09-07T07:52:25Z</time>
      </trkpt>
      <trkpt lat="42.24716" lon="8.65638">
        <ele>469.260742</ele>
        <time>2011-09-07T07:52:41Z</time>
      </trkpt>
      <trkpt lat="42.24722" lon="8.65643">
        <ele>465.896118</ele>
        <time>2011-09-07T07:53:05Z</time>
      </trkpt>
      <trkpt lat="42.24722" lon="8.65655">
        <ele>463.012085</ele>
        <time>2011-09-07T07:53:22Z</time>
      </trkpt>
      <trkpt lat="42.24722" lon="8.65657">
        <ele>460.128174</ele>
        <time>2011-09-07T07:53:59Z</time>
      </trkpt>
      <trkpt lat="42.24728" lon="8.65663">
        <ele>456.76355</ele>
        <time>2011-09-07T07:54:24Z</time>
      </trkpt>
      <trkpt lat="42.24729" lon="8.65667">
        <ele>455.802246</ele>
        <time>2011-09-07T07:54:41Z</time>
      </trkpt>
      <trkpt lat="42.24731" lon="8.65667">
        <ele>455.321533</ele>
        <time>2011-09-07T07:54:59Z</time>
      </trkpt>
      <trkpt lat="42.24737" lon="8.65666">
        <ele>455.321533</ele>
        <time>2011-09-07T07:55:31Z</time>
      </trkpt>
      <trkpt lat="42.24735" lon="8.65668">
        <ele>453.879639</ele>
        <time>2011-09-07T07:55:34Z</time>
      </trkpt>
      <trkpt lat="42.24736" lon="8.65668">
        <ele>451.957031</ele>
        <time>2011-09-07T07:55:43Z</time>
      </trkpt>
      <trkpt lat="42.24744" lon="8.65662">
        <ele>451.476318</ele>
        <time>2011-09-07T07:55:56Z</time>
      </trkpt>
      <trkpt lat="42.24743" lon="8.65652">
        <ele>452.437622</ele>
        <time>2011-09-07T07:56:11Z</time>
      </trkpt>
      <trkpt lat="42.24748" lon="8.65631">
        <ele>453.398926</ele>
        <time>2011-09-07T07:56:28Z</time>
      </trkpt>
      <trkpt lat="42.24769" lon="8.65614">
        <ele>455.802246</ele>
        <time>2011-09-07T07:56:46Z</time>
      </trkpt>
      <trkpt lat="42.24778" lon="8.65607">
        <ele>456.282959</ele>
        <time>2011-09-07T07:57:00Z</time>
      </trkpt>
      <trkpt lat="42.24785" lon="8.65599">
        <ele>456.76355</ele>
        <time>2011-09-07T07:57:14Z</time>
      </trkpt>
      <trkpt lat="42.24788" lon="8.65602">
        <ele>456.282959</ele>
        <time>2011-09-07T07:57:35Z</time>
      </trkpt>
      <trkpt lat="42.2479" lon="8.65603">
        <ele>454.84082</ele>
        <time>2011-09-07T07:57:47Z</time>
      </trkpt>
      <trkpt lat="42.24793" lon="8.65599">
        <ele>453.398926</ele>
        <time>2011-09-07T07:58:05Z</time>
      </trkpt>
      <trkpt lat="42.24795" lon="8.65594">
        <ele>452.437622</ele>
        <time>2011-09-07T07:58:17Z</time>
      </trkpt>
      <trkpt lat="42.24795" lon="8.65595">
        <ele>452.437622</ele>
        <time>2011-09-07T07:58:33Z</time>
      </trkpt>
      <trkpt lat="42.24793" lon="8.65596">
        <ele>450.995605</ele>
        <time>2011-09-07T07:58:35Z</time>
      </trkpt>
      <trkpt lat="42.24788" lon="8.656">
        <ele>453.879639</ele>
        <time>2011-09-07T07:58:44Z</time>
      </trkpt>
      <trkpt lat="42.24787" lon="8.65601">
        <ele>455.321533</ele>
        <time>2011-09-07T07:58:47Z</time>
      </trkpt>
      <trkpt lat="42.24786" lon="8.65597">
        <ele>455.802246</ele>
        <time>2011-09-07T07:59:00Z</time>
      </trkpt>
      <trkpt lat="42.24783" lon="8.65593">
        <ele>455.802246</ele>
        <time>2011-09-07T07:59:04Z</time>
      </trkpt>
      <trkpt lat="42.24783" lon="8.65578">
        <ele>455.321533</ele>
        <time>2011-09-07T07:59:14Z</time>
      </trkpt>
      <trkpt lat="42.24785" lon="8.65572">
        <ele>455.321533</ele>
        <time>2011-09-07T07:59:18Z</time>
      </trkpt>
      <trkpt lat="42.24779" lon="8.65541">
        <ele>457.244263</ele>
        <time>2011-09-07T07:59:40Z</time>
      </trkpt>
      <trkpt lat="42.24774" lon="8.65523">
        <ele>457.244263</ele>
        <time>2011-09-07T07:59:51Z</time>
      </trkpt>
      <trkpt lat="42.2477" lon="8.65507">
        <ele>457.724976</ele>
        <time>2011-09-07T08:00:04Z</time>
      </trkpt>
      <trkpt lat="42.24759" lon="8.65486">
        <ele>457.724976</ele>
        <time>2011-09-07T08:00:19Z</time>
      </trkpt>
      <trkpt lat="42.24751" lon="8.65468">
        <ele>457.244263</ele>
        <time>2011-09-07T08:00:33Z</time>
      </trkpt>
      <trkpt lat="42.24748" lon="8.65464">
        <ele>457.244263</ele>
        <time>2011-09-07T08:00:44Z</time>
      </trkpt>
      <trkpt lat="42.24728" lon="8.65467">
        <ele>457.724976</ele>
        <time>2011-09-07T08:00:58Z</time>
      </trkpt>
      <trkpt lat="42.2471" lon="8.65457">
        <ele>458.205566</ele>
        <time>2011-09-07T08:01:12Z</time>
      </trkpt>
      <trkpt lat="42.24708" lon="8.65451">
        <ele>458.205566</ele>
        <time>2011-09-07T08:01:22Z</time>
      </trkpt>
      <trkpt lat="42.24704" lon="8.65453">
        <ele>458.205566</ele>
        <time>2011-09-07T08:01:26Z</time>
      </trkpt>
      <trkpt lat="42.24681" lon="8.6546">
        <ele>457.244263</ele>
        <time>2011-09-07T08:01:46Z</time>
      </trkpt>
      <trkpt lat="42.24671" lon="8.65447">
        <ele>456.76355</ele>
        <time>2011-09-07T08:02:00Z</time>
      </trkpt>
      <trkpt lat="42.24652" lon="8.65427">
        <ele>455.802246</ele>
        <time>2011-09-07T08:02:20Z</time>
      </trkpt>
      <trkpt lat="42.24645" lon="8.65431">
        <ele>454.84082</ele>
        <time>2011-09-07T08:02:32Z</time>
      </trkpt>
      <trkpt lat="42.24643" lon="8.65434">
        <ele>454.360229</ele>
        <time>2011-09-07T08:02:34Z</time>
      </trkpt>
      <trkpt lat="42.24627" lon="8.65434">
        <ele>453.398926</ele>
        <time>2011-09-07T08:02:49Z</time>
      </trkpt>
      <trkpt lat="42.24614" lon="8.65432">
        <ele>452.918213</ele>
        <time>2011-09-07T08:03:01Z</time>
      </trkpt>
      <trkpt lat="42.246" lon="8.65428">
        <ele>451.957031</ele>
        <time>2011-09-07T08:03:17Z</time>
      </trkpt>
      <trkpt lat="42.24595" lon="8.65425">
        <ele>452.437622</ele>
        <time>2011-09-07T08:03:30Z</time>
      </trkpt>
      <trkpt lat="42.24577" lon="8.65419">
        <ele>450.515015</ele>
        <time>2011-09-07T08:03:46Z</time>
      </trkpt>
      <trkpt lat="42.24564" lon="8.65413">
        <ele>450.034424</ele>
        <time>2011-09-07T08:04:02Z</time>
      </trkpt>
      <trkpt lat="42.24552" lon="8.65407">
        <ele>449.072998</ele>
        <time>2011-09-07T08:04:19Z</time>
      </trkpt>
      <trkpt lat="42.24552" lon="8.65407">
        <ele>449.072998</ele>
        <time>2011-09-07T08:04:20Z</time>
      </trkpt>
      <trkpt lat="42.24532" lon="8.65376">
        <ele>448.111816</ele>
        <time>2011-09-07T08:04:42Z</time>
      </trkpt>
      <trkpt lat="42.24531" lon="8.65376">
        <ele>448.111816</ele>
        <time>2011-09-07T08:04:50Z</time>
      </trkpt>
      <trkpt lat="42.24512" lon="8.65375">
        <ele>448.592407</ele>
        <time>2011-09-07T08:05:07Z</time>
      </trkpt>
      <trkpt lat="42.2451" lon="8.65375">
        <ele>449.072998</ele>
        <time>2011-09-07T08:05:08Z</time>
      </trkpt>
      <trkpt lat="42.24506" lon="8.65376">
        <ele>449.553711</ele>
        <time>2011-09-07T08:05:12Z</time>
      </trkpt>
      <trkpt lat="42.24492" lon="8.65375">
        <ele>450.034424</ele>
        <time>2011-09-07T08:05:27Z</time>
      </trkpt>
      <trkpt lat="42.24483" lon="8.65375">
        <ele>450.515015</ele>
        <time>2011-09-07T08:05:42Z</time>
      </trkpt>
      <trkpt lat="42.24453" lon="8.65372">
        <ele>451.476318</ele>
        <time>2011-09-07T08:06:05Z</time>
      </trkpt>
      <trkpt lat="42.24429" lon="8.65371">
        <ele>452.918213</ele>
        <time>2011-09-07T08:06:24Z</time>
      </trkpt>
      <trkpt lat="42.24409" lon="8.65368">
        <ele>453.398926</ele>
        <time>2011-09-07T08:06:40Z</time>
      </trkpt>
      <trkpt lat="42.24405" lon="8.65365">
        <ele>453.879639</ele>
        <time>2011-09-07T08:06:45Z</time>
      </trkpt>
      <trkpt lat="42.24402" lon="8.65366">
        <ele>453.879639</ele>
        <time>2011-09-07T08:06:48Z</time>
      </trkpt>
      <trkpt lat="42.24399" lon="8.65369">
        <ele>454.360229</ele>
        <time>2011-09-07T08:06:51Z</time>
      </trkpt>
      <trkpt lat="42.24369" lon="8.65389">
        <ele>456.76355</ele>
        <time>2011-09-07T08:07:16Z</time>
      </trkpt>
      <trkpt lat="42.24345" lon="8.65406">
        <ele>458.686157</ele>
        <time>2011-09-07T08:07:36Z</time>
      </trkpt>
      <trkpt lat="42.24326" lon="8.65422">
        <ele>459.647583</ele>
        <time>2011-09-07T08:07:53Z</time>
      </trkpt>
      <trkpt lat="42.2431" lon="8.65437">
        <ele>459.16687</ele>
        <time>2011-09-07T08:08:09Z</time>
      </trkpt>
      <trkpt lat="42.24288" lon="8.65432">
        <ele>460.608765</ele>
        <time>2011-09-07T08:08:26Z</time>
      </trkpt>
      <trkpt lat="42.2428" lon="8.65405">
        <ele>462.531372</ele>
        <time>2011-09-07T08:08:44Z</time>
      </trkpt>
      <trkpt lat="42.24275" lon="8.65362">
        <ele>464.934814</ele>
        <time>2011-09-07T08:09:10Z</time>
      </trkpt>
      <trkpt lat="42.2427" lon="8.65316">
        <ele>466.857422</ele>
        <time>2011-09-07T08:09:36Z</time>
      </trkpt>
      <trkpt lat="42.24261" lon="8.65291">
        <ele>469.260742</ele>
        <time>2011-09-07T08:09:54Z</time>
      </trkpt>
      <trkpt lat="42.2426" lon="8.65288">
        <ele>470.221924</ele>
        <time>2011-09-07T08:10:05Z</time>
      </trkpt>
      <trkpt lat="42.24251" lon="8.6529">
        <ele>470.221924</ele>
        <time>2011-09-07T08:10:21Z</time>
      </trkpt>
      <trkpt lat="42.2424" lon="8.65304">
        <ele>471.18335</ele>
        <time>2011-09-07T08:10:36Z</time>
      </trkpt>
      <trkpt lat="42.24236" lon="8.65311">
        <ele>471.18335</ele>
        <time>2011-09-07T08:10:49Z</time>
      </trkpt>
      <trkpt lat="42.24233" lon="8.65316">
        <ele>471.18335</ele>
        <time>2011-09-07T08:11:01Z</time>
      </trkpt>
      <trkpt lat="42.24228" lon="8.65323">
        <ele>471.66394</ele>
        <time>2011-09-07T08:11:16Z</time>
      </trkpt>
      <trkpt lat="42.24221" lon="8.65335">
        <ele>472.144653</ele>
        <time>2011-09-07T08:11:27Z</time>
      </trkpt>
      <trkpt lat="42.24221" lon="8.65335">
        <ele>472.625366</ele>
        <time>2011-09-07T08:11:42Z</time>
      </trkpt>
      <trkpt lat="42.24216" lon="8.65345">
        <ele>473.106079</ele>
        <time>2011-09-07T08:12:06Z</time>
      </trkpt>
      <trkpt lat="42.24189" lon="8.65349">
        <ele>474.067261</ele>
        <time>2011-09-07T08:12:27Z</time>
      </trkpt>
      <trkpt lat="42.24171" lon="8.65329">
        <ele>474.547974</ele>
        <time>2011-09-07T08:12:48Z</time>
      </trkpt>
      <trkpt lat="42.24158" lon="8.65305">
        <ele>475.989868</ele>
        <time>2011-09-07T08:13:07Z</time>
      </trkpt>
      <trkpt lat="42.24151" lon="8.65293">
        <ele>476.951294</ele>
        <time>2011-09-07T08:13:21Z</time>
      </trkpt>
      <trkpt lat="42.24134" lon="8.65276">
        <ele>477.912476</ele>
        <time>2011-09-07T08:13:36Z</time>
      </trkpt>
      <trkpt lat="42.24126" lon="8.65264">
        <ele>478.393188</ele>
        <time>2011-09-07T08:13:45Z</time>
      </trkpt>
      <trkpt lat="42.24101" lon="8.65249">
        <ele>479.354492</ele>
        <time>2011-09-07T08:14:05Z</time>
      </trkpt>
      <trkpt lat="42.24081" lon="8.65233">
        <ele>479.354492</ele>
        <time>2011-09-07T08:14:23Z</time>
      </trkpt>
      <trkpt lat="42.24077" lon="8.6523">
        <ele>478.873901</ele>
        <time>2011-09-07T08:14:27Z</time>
      </trkpt>
      <trkpt lat="42.24071" lon="8.65232">
        <ele>479.354492</ele>
        <time>2011-09-07T08:14:32Z</time>
      </trkpt>
      <trkpt lat="42.24043" lon="8.65236">
        <ele>478.393188</ele>
        <time>2011-09-07T08:14:53Z</time>
      </trkpt>
      <trkpt lat="42.24014" lon="8.65241">
        <ele>477.912476</ele>
        <time>2011-09-07T08:15:16Z</time>
      </trkpt>
      <trkpt lat="42.24012" lon="8.65244">
        <ele>478.873901</ele>
        <time>2011-09-07T08:15:18Z</time>
      </trkpt>
      <trkpt lat="42.24009" lon="8.65255">
        <ele>478.873901</ele>
        <time>2011-09-07T08:15:27Z</time>
      </trkpt>
      <trkpt lat="42.24021" lon="8.65258">
        <ele>482.238525</ele>
        <time>2011-09-07T08:15:39Z</time>
      </trkpt>
      <trkpt lat="42.24034" lon="8.65267">
        <ele>483.199829</ele>
        <time>2011-09-07T08:15:52Z</time>
      </trkpt>
      <trkpt lat="42.24037" lon="8.65272">
        <ele>484.161133</ele>
        <time>2011-09-07T08:15:56Z</time>
      </trkpt>
      <trkpt lat="42.2404" lon="8.65288">
        <ele>485.603027</ele>
        <time>2011-09-07T08:16:11Z</time>
      </trkpt>
      <trkpt lat="42.24031" lon="8.65313">
        <ele>487.525635</ele>
        <time>2011-09-07T08:16:27Z</time>
      </trkpt>
      <trkpt lat="42.24013" lon="8.65344">
        <ele>488.00647</ele>
        <time>2011-09-07T08:16:51Z</time>
      </trkpt>
      <trkpt lat="42.24002" lon="8.65366">
        <ele>488.00647</ele>
        <time>2011-09-07T08:17:08Z</time>
      </trkpt>
      <trkpt lat="42.23997" lon="8.65387">
        <ele>487.525635</ele>
        <time>2011-09-07T08:17:25Z</time>
      </trkpt>
      <trkpt lat="42.23987" lon="8.65415">
        <ele>488.00647</ele>
        <time>2011-09-07T08:17:44Z</time>
      </trkpt>
      <trkpt lat="42.23985" lon="8.65443">
        <ele>487.525635</ele>
        <time>2011-09-07T08:18:02Z</time>
      </trkpt>
      <trkpt lat="42.23988" lon="8.65444">
        <ele>487.045044</ele>
        <time>2011-09-07T08:18:05Z</time>
      </trkpt>
      <trkpt lat="42.23989" lon="8.65446">
        <ele>487.045044</ele>
        <time>2011-09-07T08:18:07Z</time>
      </trkpt>
      <trkpt lat="42.24007" lon="8.65435">
        <ele>486.08374</ele>
        <time>2011-09-07T08:18:26Z</time>
      </trkpt>
      <trkpt lat="42.24012" lon="8.6543">
        <ele>485.603027</ele>
        <time>2011-09-07T08:18:40Z</time>
      </trkpt>
      <trkpt lat="42.24013" lon="8.65429">
        <ele>484.641846</ele>
        <time>2011-09-07T08:18:49Z</time>
      </trkpt>
    </trkseg>
  </trk>
</gpx>